Time;durP1;ratioP1;P1;durP2;ratioP2;P2;SDS_P1;SDS_P2;PMS_P1;PMS_P2;Temp;Humidity;BMP_temperature;BMP_pressure;BME280_temperature;BME280_humidity;BME280_pressure;Samples;Min_cycle;Max_cycle;Signal;HPM_P1;HPM_P2
2023/03/18 00:01:29;;;;;;;4.85;1.35;;;;;;;;;;5009096;28;20022;-75
2023/03/18 00:03:55;;;;;;;2.92;1.10;;;;;;;;;;5009153;28;20026;-75
2023/03/18 00:06:21;;;;;;;3.17;1.02;;;;;;;;;;5010786;28;20528;-74
2023/03/18 00:08:48;;;;;;;2.05;1.75;;;;;;;;;;5008859;28;20281;-76
2023/03/18 00:11:15;;;;;;;2.15;1.55;;;;;;;;;;5008071;28;20025;-75
2023/03/18 00:13:42;;;;;;;1.92;1.38;;;;;;;;;;5010656;28;20030;-75
2023/03/18 00:16:10;;;;;;;4.50;0.90;;;;;;;;;;5009910;28;20032;-75
2023/03/18 00:18:36;;;;;;;2.03;1.25;;;;;;;;;;5009010;28;20022;-75
2023/03/18 00:21:03;;;;;;;1.92;1.33;;;;;;;;;;5008706;28;20036;-75
2023/03/18 00:23:29;;;;;;;1.67;1.42;;;;;;;;;;5009142;28;20095;-75
2023/03/18 00:25:56;;;;;;;2.45;1.25;;;;;;;;;;5008545;28;20062;-75
2023/03/18 00:28:25;;;;;;;1.75;1.60;;;;;;;;;;5012605;28;20030;-75
2023/03/18 00:30:52;;;;;;;2.40;1.17;;;;;;;;;;5012046;28;20590;-75
2023/03/18 00:33:18;;;;;;;1.35;1.10;;;;;;;;;;5026185;28;20055;-75
2023/03/18 00:35:45;;;;;;;4.40;1.75;;;;;;;;;;5029901;28;20029;-76
2023/03/18 00:38:19;;;;;;;2.30;1.30;;;;;;;;;;5028435;28;20021;-76
2023/03/18 00:40:52;;;;;;;3.90;0.90;;;;;;;;;;5031135;28;20116;-76
2023/03/18 00:43:21;;;;;;;2.47;0.80;;;;;;;;;;5029283;28;20025;-75
2023/03/18 00:45:48;;;;;;;1.73;0.82;;;;;;;;;;5031159;28;20025;-76
2023/03/18 00:48:14;;;;;;;2.35;0.77;;;;;;;;;;5031895;28;20108;-76
2023/03/18 00:50:41;;;;;;;0.80;0.80;;;;;;;;;;5031061;28;20024;-76
2023/03/18 00:53:07;;;;;;;1.27;0.90;;;;;;;;;;5030932;28;20478;-76
2023/03/18 00:55:34;;;;;;;2.45;1.02;;;;;;;;;;5030386;28;20100;-76
2023/03/18 00:58:00;;;;;;;0.98;0.90;;;;;;;;;;5030269;28;20022;-76
2023/03/18 01:00:26;;;;;;;5.82;1.83;;;;;;;;;;5030662;28;20336;-76
2023/03/18 01:02:53;;;;;;;1.45;1.20;;;;;;;;;;5031249;28;20048;-76
2023/03/18 01:05:20;;;;;;;1.52;1.20;;;;;;;;;;5031032;28;20059;-76
2023/03/18 01:07:46;;;;;;;9.88;1.90;;;;;;;;;;5031201;28;20331;-76
2023/03/18 01:10:13;;;;;;;0.82;0.82;;;;;;;;;;5030804;28;20411;-76
2023/03/18 01:12:40;;;;;;;1.92;1.02;;;;;;;;;;5029591;28;20097;-76
2023/03/18 01:15:08;;;;;;;2.47;0.95;;;;;;;;;;5031680;28;20467;-75
2023/03/18 01:17:37;;;;;;;0.75;0.70;;;;;;;;;;5030898;28;20052;-75
2023/03/18 01:20:03;;;;;;;3.17;2.38;;;;;;;;;;5032551;28;20033;-75
2023/03/18 01:22:29;;;;;;;1.88;1.13;;;;;;;;;;5032629;28;20056;-74
2023/03/18 01:24:56;;;;;;;1.33;0.88;;;;;;;;;;5034140;28;20160;-74
2023/03/18 01:27:23;;;;;;;1.17;0.82;;;;;;;;;;5032691;28;20529;-74
2023/03/18 01:29:50;;;;;;;1.42;0.98;;;;;;;;;;5031743;28;20087;-75
2023/03/18 01:32:17;;;;;;;0.70;0.70;;;;;;;;;;5031892;28;20032;-76
2023/03/18 01:34:43;;;;;;;4.78;1.10;;;;;;;;;;5032544;28;20501;-75
2023/03/18 01:37:10;;;;;;;1.05;0.90;;;;;;;;;;5034841;28;20029;-77
2023/03/18 01:39:36;;;;;;;4.25;2.05;;;;;;;;;;5033595;28;20486;-74
2023/03/18 01:42:04;;;;;;;3.80;1.63;;;;;;;;;;5033806;28;20029;-74
2023/03/18 01:44:30;;;;;;;1.33;1.20;;;;;;;;;;5030185;28;20053;-76
2023/03/18 01:46:56;;;;;;;1.17;0.77;;;;;;;;;;5028469;28;20017;-76
2023/03/18 01:49:28;;;;;;;1.00;0.90;;;;;;;;;;5027071;28;20444;-75
2023/03/18 01:51:57;;;;;;;12.27;1.33;;;;;;;;;;5028787;28;20100;-77
2023/03/18 01:54:23;;;;;;;1.30;1.00;;;;;;;;;;5029906;28;20036;-76
2023/03/18 01:56:50;;;;;;;4.20;1.08;;;;;;;;;;5029564;28;20057;-76
2023/03/18 01:59:17;;;;;;;2.95;1.40;;;;;;;;;;5030862;28;20037;-76
2023/03/18 02:01:52;;;;;;;1.33;1.23;;;;;;;;;;5033545;28;20421;-76
2023/03/18 02:04:20;;;;;;;1.02;0.93;;;;;;;;;;5027315;28;20063;-76
2023/03/18 02:06:46;;;;;;;0.90;0.90;;;;;;;;;;5028658;28;20025;-74
2023/03/18 02:09:12;;;;;;;6.03;1.45;;;;;;;;;;5029680;28;20052;-75
2023/03/18 02:11:41;;;;;;;1.98;1.25;;;;;;;;;;5030237;28;20470;-75
2023/03/18 02:14:09;;;;;;;1.00;1.00;;;;;;;;;;5028874;28;20017;-74
2023/03/18 02:16:43;;;;;;;2.38;1.05;;;;;;;;;;5030924;28;20442;-74
2023/03/18 02:19:25;;;;;;;3.45;1.20;;;;;;;;;;5030913;28;20283;-74
2023/03/18 02:21:59;;;;;;;9.57;2.00;;;;;;;;;;5031429;28;20037;-74
2023/03/18 02:24:52;;;;;;;7.18;1.95;;;;;;;;;;5030842;28;20386;-74
2023/03/18 02:27:25;;;;;;;1.40;0.93;;;;;;;;;;5026899;28;20426;-74
2023/03/18 02:29:56;;;;;;;2.25;1.25;;;;;;;;;;5030959;28;20059;-74
2023/03/18 02:32:24;;;;;;;3.40;1.13;;;;;;;;;;5030452;28;20597;-74
2023/03/18 02:34:50;;;;;;;2.33;0.75;;;;;;;;;;5031312;28;20025;-74
2023/03/18 02:37:16;;;;;;;2.92;1.40;;;;;;;;;;5031343;28;20453;-74
2023/03/18 02:39:42;;;;;;;2.75;1.10;;;;;;;;;;5029569;28;20065;-75
2023/03/18 02:42:12;;;;;;;2.42;1.48;;;;;;;;;;5030771;28;20049;-74
2023/03/18 02:44:40;;;;;;;2.22;1.20;;;;;;;;;;5031732;28;20109;-74
2023/03/18 02:47:09;;;;;;;3.00;1.40;;;;;;;;;;5032483;28;20017;-74
2023/03/18 02:49:36;;;;;;;1.88;0.95;;;;;;;;;;5029974;28;20049;-75
2023/03/18 02:52:02;;;;;;;4.18;1.33;;;;;;;;;;5028405;28;20100;-74
2023/03/18 02:54:29;;;;;;;3.00;0.88;;;;;;;;;;5028447;28;20029;-74
2023/03/18 02:56:56;;;;;;;3.20;2.47;;;;;;;;;;5028241;28;20028;-74
2023/03/18 02:59:22;;;;;;;1.08;0.93;;;;;;;;;;5031987;28;20026;-74
2023/03/18 03:01:49;;;;;;;2.28;0.80;;;;;;;;;;5035171;28;20074;-74
2023/03/18 03:04:16;;;;;;;2.25;1.13;;;;;;;;;;5035079;28;20112;-74
2023/03/18 03:06:42;;;;;;;3.75;1.65;;;;;;;;;;5035020;28;20390;-75
2023/03/18 03:09:09;;;;;;;2.95;1.45;;;;;;;;;;5036508;28;20029;-74
2023/03/18 03:11:36;;;;;;;2.03;1.10;;;;;;;;;;5034825;28;20567;-74
2023/03/18 03:14:02;;;;;;;1.77;1.25;;;;;;;;;;5036032;28;20032;-74
2023/03/18 03:16:28;;;;;;;2.78;1.80;;;;;;;;;;5034884;28;20039;-74
2023/03/18 03:18:54;;;;;;;2.30;1.10;;;;;;;;;;5036896;28;20436;-75
2023/03/18 03:21:21;;;;;;;1.33;0.88;;;;;;;;;;5036199;28;20037;-74
2023/03/18 03:23:47;;;;;;;2.15;1.23;;;;;;;;;;5034750;28;20033;-75
2023/03/18 03:26:14;;;;;;;5.00;1.70;;;;;;;;;;5035764;28;20022;-74
2023/03/18 03:28:40;;;;;;;5.85;1.05;;;;;;;;;;5035774;28;20053;-74
2023/03/18 03:31:07;;;;;;;5.78;2.00;;;;;;;;;;5035115;28;20033;-74
2023/03/18 03:33:33;;;;;;;2.75;1.70;;;;;;;;;;5033197;28;20471;-73
2023/03/18 03:35:59;;;;;;;2.35;1.27;;;;;;;;;;5033400;28;20032;-75
2023/03/18 03:38:26;;;;;;;1.70;1.10;;;;;;;;;;5034222;28;20025;-74
2023/03/18 03:40:53;;;;;;;1.20;1.08;;;;;;;;;;5034468;28;20025;-74
2023/03/18 03:43:19;;;;;;;0.98;0.98;;;;;;;;;;5033377;28;20029;-74
2023/03/18 03:45:45;;;;;;;6.80;1.40;;;;;;;;;;5034545;28;20025;-74
2023/03/18 03:48:11;;;;;;;2.10;1.35;;;;;;;;;;5033260;28;20439;-74
2023/03/18 03:50:38;;;;;;;1.35;0.98;;;;;;;;;;5034947;28;20028;-74
2023/03/18 03:53:09;;;;;;;2.10;1.35;;;;;;;;;;5032539;28;20406;-75
2023/03/18 03:55:35;;;;;;;1.60;1.20;;;;;;;;;;5034287;28;20021;-75
2023/03/18 03:58:01;;;;;;;1.25;1.15;;;;;;;;;;5031621;28;20389;-74
2023/03/18 04:00:27;;;;;;;6.00;1.65;;;;;;;;;;5034327;28;20095;-74
2023/03/18 04:02:53;;;;;;;4.53;1.65;;;;;;;;;;5034031;28;20021;-74
2023/03/18 04:05:21;;;;;;;3.35;1.85;;;;;;;;;;5031765;28;20037;-74
2023/03/18 04:07:48;;;;;;;1.58;1.40;;;;;;;;;;5032553;28;20403;-74
2023/03/18 04:10:16;;;;;;;1.35;1.25;;;;;;;;;;5031746;28;20363;-74
2023/03/18 04:12:44;;;;;;;2.17;1.38;;;;;;;;;;5031196;28;20021;-74
2023/03/18 04:15:11;;;;;;;1.33;1.17;;;;;;;;;;5031185;28;20025;-74
2023/03/18 04:17:37;;;;;;;2.83;1.42;;;;;;;;;;5029793;28;20026;-75
2023/03/18 04:20:04;;;;;;;1.63;1.13;;;;;;;;;;5029529;28;20473;-76
2023/03/18 04:22:30;;;;;;;2.55;1.50;;;;;;;;;;5031610;28;20548;-75
2023/03/18 04:24:56;;;;;;;2.00;1.50;;;;;;;;;;5031355;28;20036;-76
2023/03/18 04:27:22;;;;;;;1.92;1.00;;;;;;;;;;5030887;28;20021;-76
2023/03/18 04:29:48;;;;;;;1.30;1.20;;;;;;;;;;5030769;28;20049;-76
2023/03/18 04:32:14;;;;;;;1.45;1.10;;;;;;;;;;5030663;28;20052;-75
2023/03/18 04:34:40;;;;;;;4.03;1.33;;;;;;;;;;5031120;28;20021;-75
2023/03/18 04:37:08;;;;;;;4.10;1.80;;;;;;;;;;5031107;28;20021;-75
2023/03/18 04:39:37;;;;;;;2.35;1.50;;;;;;;;;;5030721;28;20041;-76
2023/03/18 04:42:03;;;;;;;3.33;1.45;;;;;;;;;;5030542;28;20026;-75
2023/03/18 04:44:29;;;;;;;1.25;1.08;;;;;;;;;;5028817;28;20147;-76
2023/03/18 04:46:55;;;;;;;5.10;1.40;;;;;;;;;;5030684;28;20025;-75
2023/03/18 04:49:22;;;;;;;0.90;0.90;;;;;;;;;;5029154;28;20029;-76
2023/03/18 04:51:48;;;;;;;2.35;1.35;;;;;;;;;;5029198;28;20029;-75
2023/03/18 04:54:14;;;;;;;4.95;1.00;;;;;;;;;;5030493;28;20031;-76
2023/03/18 04:56:40;;;;;;;1.23;1.23;;;;;;;;;;5030677;28;20393;-75
2023/03/18 04:59:06;;;;;;;3.13;1.48;;;;;;;;;;5031003;28;20034;-75
2023/03/18 05:01:32;;;;;;;1.20;1.02;;;;;;;;;;5031895;28;20026;-75
2023/03/18 05:03:59;;;;;;;1.30;1.05;;;;;;;;;;5031102;28;20105;-74
2023/03/18 05:06:26;;;;;;;2.53;1.60;;;;;;;;;;5018329;28;20022;-74
2023/03/18 05:08:53;;;;;;;2.28;1.75;;;;;;;;;;5010439;28;20030;-74
2023/03/18 05:11:19;;;;;;;2.97;1.35;;;;;;;;;;5010213;28;20022;-74
2023/03/18 05:13:45;;;;;;;2.33;1.48;;;;;;;;;;5010496;28;20026;-76
2023/03/18 05:16:12;;;;;;;2.40;1.35;;;;;;;;;;5010486;28;20022;-76
2023/03/18 05:18:40;;;;;;;2.35;1.38;;;;;;;;;;5010539;28;20033;-75
2023/03/18 05:21:06;;;;;;;3.17;1.48;;;;;;;;;;5011167;28;20026;-75
2023/03/18 05:23:32;;;;;;;5.03;1.60;;;;;;;;;;5025430;28;20029;-76
2023/03/18 05:25:58;;;;;;;3.38;1.95;;;;;;;;;;5010845;28;20109;-74
2023/03/18 05:28:24;;;;;;;3.15;1.70;;;;;;;;;;5011613;28;20382;-74
2023/03/18 05:30:51;;;;;;;4.63;1.50;;;;;;;;;;5012421;28;20037;-75
2023/03/18 05:33:18;;;;;;;1.88;1.30;;;;;;;;;;5011475;28;20057;-75
2023/03/18 05:35:44;;;;;;;2.97;1.60;;;;;;;;;;5025267;28;20054;-75
2023/03/18 05:38:10;;;;;;;2.50;1.17;;;;;;;;;;5025067;28;20049;-74
2023/03/18 05:40:36;;;;;;;2.22;1.40;;;;;;;;;;5025029;28;20529;-74
2023/03/18 05:43:02;;;;;;;3.10;1.45;;;;;;;;;;5009813;28;20482;-74
2023/03/18 05:45:28;;;;;;;4.28;1.52;;;;;;;;;;5025011;28;20033;-75
2023/03/18 05:47:56;;;;;;;2.85;2.35;;;;;;;;;;5010586;28;20224;-75
2023/03/18 05:50:29;;;;;;;4.38;1.88;;;;;;;;;;5010544;28;20057;-75
2023/03/18 05:52:55;;;;;;;4.90;1.67;;;;;;;;;;5010420;28;20453;-75
2023/03/18 05:55:22;;;;;;;1.38;1.27;;;;;;;;;;5010559;28;20438;-76
2023/03/18 05:57:48;;;;;;;2.03;1.52;;;;;;;;;;5025875;28;20026;-74
2023/03/18 06:00:14;;;;;;;1.35;1.05;;;;;;;;;;5026085;28;20120;-75
2023/03/18 06:02:40;;;;;;;3.70;1.45;;;;;;;;;;5010215;28;20097;-75
2023/03/18 06:05:07;;;;;;;4.53;1.60;;;;;;;;;;5024814;28;20030;-75
2023/03/18 06:07:35;;;;;;;2.08;1.38;;;;;;;;;;5009651;28;20029;-75
2023/03/18 06:10:01;;;;;;;1.00;0.90;;;;;;;;;;5009496;28;20054;-74
2023/03/18 06:12:27;;;;;;;3.40;1.35;;;;;;;;;;5009730;28;20108;-75
2023/03/18 06:14:53;;;;;;;1.85;1.67;;;;;;;;;;5025318;28;20025;-74
2023/03/18 06:17:20;;;;;;;5.75;1.20;;;;;;;;;;5011121;28;20022;-75
2023/03/18 06:19:47;;;;;;;1.90;1.20;;;;;;;;;;5025850;28;20034;-74
2023/03/18 06:22:14;;;;;;;4.20;1.20;;;;;;;;;;5010262;28;20018;-75
2023/03/18 06:24:40;;;;;;;1.35;1.00;;;;;;;;;;5010777;28;20030;-75
2023/03/18 06:27:06;;;;;;;2.92;1.95;;;;;;;;;;5024250;28;20069;-74
2023/03/18 06:29:32;;;;;;;2.95;1.98;;;;;;;;;;5009351;28;20247;-75
2023/03/18 06:31:58;;;;;;;1.27;1.15;;;;;;;;;;5009690;28;20068;-74
2023/03/18 06:34:25;;;;;;;1.55;1.30;;;;;;;;;;5013066;28;20058;-75
2023/03/18 06:36:52;;;;;;;0.80;0.80;;;;;;;;;;5015217;28;20037;-75
2023/03/18 06:39:18;;;;;;;0.82;0.82;;;;;;;;;;5029537;28;20042;-75
2023/03/18 06:41:45;;;;;;;2.40;1.33;;;;;;;;;;5013367;28;20026;-74
2023/03/18 06:44:12;;;;;;;13.43;2.17;;;;;;;;;;5013153;28;20483;-75
2023/03/18 06:46:38;;;;;;;3.70;1.00;;;;;;;;;;5014118;28;20415;-76
2023/03/18 06:49:04;;;;;;;1.05;0.93;;;;;;;;;;5013129;28;20025;-75
2023/03/18 06:51:30;;;;;;;2.50;2.25;;;;;;;;;;5012975;28;20021;-75
2023/03/18 06:53:56;;;;;;;1.77;0.93;;;;;;;;;;5013086;28;20049;-75
2023/03/18 06:56:22;;;;;;;2.03;1.60;;;;;;;;;;5016053;28;20037;-76
2023/03/18 06:58:48;;;;;;;1.65;1.20;;;;;;;;;;5039785;28;20033;-75
2023/03/18 07:01:14;;;;;;;5.05;1.60;;;;;;;;;;5031034;28;20017;-76
2023/03/18 07:03:41;;;;;;;1.63;1.40;;;;;;;;;;5031148;28;20474;-74
2023/03/18 07:06:09;;;;;;;2.55;1.20;;;;;;;;;;5029886;28;20540;-75
2023/03/18 07:08:35;;;;;;;2.17;1.50;;;;;;;;;;5029041;28;20022;-77
2023/03/18 07:11:02;;;;;;;2.03;1.20;;;;;;;;;;5027783;28;20402;-76
2023/03/18 07:13:28;;;;;;;2.25;1.65;;;;;;;;;;5029778;28;20026;-76
2023/03/18 07:15:55;;;;;;;2.85;1.30;;;;;;;;;;5028548;28;20030;-74
2023/03/18 07:18:21;;;;;;;2.15;1.50;;;;;;;;;;5029115;28;20037;-75
2023/03/18 07:20:48;;;;;;;1.83;1.48;;;;;;;;;;5028434;28;20252;-75
2023/03/18 07:23:14;;;;;;;3.80;1.63;;;;;;;;;;5028624;28;20025;-75
2023/03/18 07:25:41;;;;;;;3.28;1.83;;;;;;;;;;5026550;28;20116;-76
2023/03/18 07:28:07;;;;;;;2.47;1.45;;;;;;;;;;5029036;28;20525;-75
2023/03/18 07:30:37;;;;;;;2.28;1.40;;;;;;;;;;5028584;28;20112;-75
2023/03/18 07:33:06;;;;;;;1.63;1.52;;;;;;;;;;5028714;28;20072;-76
2023/03/18 07:35:32;;;;;;;1.77;1.65;;;;;;;;;;5028266;28;20029;-74
2023/03/18 07:37:58;;;;;;;4.78;2.03;;;;;;;;;;5029458;28;20060;-76
2023/03/18 07:40:24;;;;;;;6.80;2.38;;;;;;;;;;5027008;28;20072;-75
2023/03/18 07:42:50;;;;;;;2.35;2.03;;;;;;;;;;5028400;28;20053;-75
2023/03/18 07:45:17;;;;;;;3.90;2.28;;;;;;;;;;5031376;28;20036;-75
2023/03/18 07:47:43;;;;;;;3.15;1.77;;;;;;;;;;5023796;28;20057;-76
2023/03/18 07:50:11;;;;;;;2.45;2.20;;;;;;;;;;5008538;28;20061;-75
2023/03/18 07:52:37;;;;;;;3.15;1.67;;;;;;;;;;5026483;28;20594;-77
2023/03/18 07:55:08;;;;;;;2.78;2.15;;;;;;;;;;5030050;28;20025;-76
2023/03/18 07:57:37;;;;;;;2.38;2.17;;;;;;;;;;5030026;28;20489;-77
2023/03/18 08:00:04;;;;;;;4.10;2.10;;;;;;;;;;5030632;28;20464;-78
2023/03/18 08:02:30;;;;;;;6.65;2.05;;;;;;;;;;5027887;28;20033;-77
2023/03/18 08:04:57;;;;;;;2.60;1.77;;;;;;;;;;5047972;28;20120;-76
2023/03/18 08:07:24;;;;;;;4.22;2.58;;;;;;;;;;5048596;28;20021;-77
2023/03/18 08:09:50;;;;;;;4.95;2.70;;;;;;;;;;5050809;28;20021;-77
2023/03/18 08:12:17;;;;;;;1.98;1.73;;;;;;;;;;5049489;28;20405;-77
2023/03/18 08:14:43;;;;;;;3.63;2.22;;;;;;;;;;5049291;28;20108;-76
2023/03/18 08:17:09;;;;;;;2.67;1.95;;;;;;;;;;5049339;28;20096;-78
2023/03/18 08:19:35;;;;;;;2.83;1.67;;;;;;;;;;5048792;28;20036;-76
2023/03/18 08:22:02;;;;;;;2.60;1.30;;;;;;;;;;5048856;28;20574;-78
2023/03/18 08:24:28;;;;;;;9.70;2.78;;;;;;;;;;5049360;28;20025;-75
2023/03/18 08:26:55;;;;;;;2.10;1.50;;;;;;;;;;5049501;28;20017;-75
2023/03/18 08:29:21;;;;;;;2.92;2.53;;;;;;;;;;5049142;28;20053;-76
2023/03/18 08:31:47;;;;;;;5.95;2.28;;;;;;;;;;5049154;28;20036;-75
2023/03/18 08:34:14;;;;;;;1.90;1.58;;;;;;;;;;5049161;28;20055;-75
2023/03/18 08:36:41;;;;;;;3.92;2.45;;;;;;;;;;5049323;28;20025;-77
2023/03/18 08:39:08;;;;;;;6.53;2.35;;;;;;;;;;5049025;28;20355;-75
2023/03/18 08:41:37;;;;;;;5.03;2.40;;;;;;;;;;5049209;28;20021;-76
2023/03/18 08:44:06;;;;;;;4.22;1.77;;;;;;;;;;5050061;28;20030;-76
2023/03/18 08:46:32;;;;;;;2.65;2.45;;;;;;;;;;5049995;28;20047;-77
2023/03/18 08:48:58;;;;;;;2.72;1.98;;;;;;;;;;5049265;28;20440;-76
2023/03/18 08:51:25;;;;;;;3.67;1.75;;;;;;;;;;5050309;28;20021;-76
2023/03/18 08:53:51;;;;;;;5.70;1.80;;;;;;;;;;5050416;28;20505;-75
2023/03/18 08:56:17;;;;;;;4.50;2.13;;;;;;;;;;5049583;28;20052;-76
2023/03/18 08:58:44;;;;;;;2.55;1.63;;;;;;;;;;5049975;28;20028;-76
2023/03/18 09:01:10;;;;;;;2.53;1.55;;;;;;;;;;5050439;28;20017;-76
2023/03/18 09:03:36;;;;;;;2.38;1.85;;;;;;;;;;5050341;28;20486;-76
2023/03/18 09:06:06;;;;;;;4.43;1.98;;;;;;;;;;5048919;28;20105;-76
2023/03/18 09:08:32;;;;;;;5.32;1.90;;;;;;;;;;5049881;28;20025;-76
2023/03/18 09:10:58;;;;;;;2.53;1.63;;;;;;;;;;5049796;28;20029;-76
2023/03/18 09:13:25;;;;;;;2.53;1.75;;;;;;;;;;5049969;28;20013;-77
2023/03/18 09:15:51;;;;;;;2.15;1.77;;;;;;;;;;5049843;28;20021;-74
2023/03/18 09:18:18;;;;;;;3.42;1.67;;;;;;;;;;5049936;28;20044;-75
2023/03/18 09:20:44;;;;;;;2.78;1.50;;;;;;;;;;5049755;28;20389;-75
2023/03/18 09:23:11;;;;;;;1.65;1.25;;;;;;;;;;5050281;28;20021;-75
2023/03/18 09:25:38;;;;;;;1.88;1.58;;;;;;;;;;5049598;28;20112;-75
2023/03/18 09:28:04;;;;;;;2.25;1.63;;;;;;;;;;5049889;28;20099;-76
2023/03/18 09:30:31;;;;;;;2.33;1.60;;;;;;;;;;5049786;28;20599;-76
2023/03/18 09:32:58;;;;;;;6.68;2.38;;;;;;;;;;5049490;28;20100;-75
2023/03/18 09:35:24;;;;;;;1.70;1.27;;;;;;;;;;5049151;28;20074;-76
2023/03/18 09:37:50;;;;;;;3.03;1.40;;;;;;;;;;5049613;28;20043;-75
2023/03/18 09:40:26;;;;;;;4.95;1.00;;;;;;;;;;5048558;28;20037;-75
2023/03/18 09:43:01;;;;;;;2.58;1.42;;;;;;;;;;5049181;28;20056;-76
2023/03/18 09:45:36;;;;;;;3.50;1.80;;;;;;;;;;5049137;28;20020;-75
2023/03/18 09:48:05;;;;;;;1.70;1.40;;;;;;;;;;5050049;28;20062;-76
2023/03/18 09:50:47;;;;;;;5.13;1.77;;;;;;;;;;5017557;28;20029;-77
2023/03/18 09:53:19;;;;;;;2.30;1.63;;;;;;;;;;5009665;28;20036;-75
2023/03/18 09:55:49;;;;;;;4.68;1.73;;;;;;;;;;5024850;28;20029;-77
2023/03/18 09:58:22;;;;;;;1.92;1.17;;;;;;;;;;5009996;28;20631;-76
2023/03/18 10:00:50;;;;;;;3.85;1.15;;;;;;;;;;5009432;28;20033;-76
2023/03/18 10:03:26;;;;;;;3.83;1.60;;;;;;;;;;5009567;28;20022;-76
2023/03/18 10:05:56;;;;;;;3.97;1.80;;;;;;;;;;5024755;28;20029;-77
2023/03/18 10:08:35;;;;;;;1.23;1.00;;;;;;;;;;5028437;28;20029;-77
2023/03/18 10:11:04;;;;;;;3.58;1.23;;;;;;;;;;5032442;28;20104;-76
2023/03/18 10:13:38;;;;;;;1.47;1.17;;;;;;;;;;5032458;28;20022;-75
2023/03/18 10:16:06;;;;;;;2.40;1.40;;;;;;;;;;5032956;28;20029;-75
2023/03/18 10:18:36;;;;;;;1.88;1.35;;;;;;;;;;5033242;28;20022;-75
2023/03/18 10:21:14;;;;;;;4.53;1.42;;;;;;;;;;5033398;28;20037;-75
2023/03/18 10:23:43;;;;;;;4.85;1.52;;;;;;;;;;5033583;28;20033;-76
2023/03/18 10:26:29;;;;;;;1.77;0.90;;;;;;;;;;5033789;28;20091;-75
2023/03/18 10:29:13;;;;;;;1.33;1.05;;;;;;;;;;5032954;28;20375;-74
2023/03/18 10:32:00;;;;;;;1.40;1.30;;;;;;;;;;5032519;28;20394;-75
2023/03/18 10:34:52;;;;;;;6.32;1.23;;;;;;;;;;5015948;28;20043;-76
2023/03/18 10:37:23;;;;;;;3.65;1.27;;;;;;;;;;5028241;28;20037;-75
2023/03/18 10:39:50;;;;;;;3.47;1.15;;;;;;;;;;5045801;28;20032;-75
2023/03/18 10:42:25;;;;;;;1.60;1.10;;;;;;;;;;5051071;28;20040;-76
2023/03/18 10:44:51;;;;;;;1.55;1.42;;;;;;;;;;5052790;28;20234;-75
2023/03/18 10:47:32;;;;;;;2.22;1.25;;;;;;;;;;5052803;28;20473;-77
2023/03/18 10:50:05;;;;;;;5.30;1.05;;;;;;;;;;5051227;28;20028;-77
2023/03/18 10:52:31;;;;;;;2.10;1.48;;;;;;;;;;5051247;28;20027;-77
2023/03/18 10:54:57;;;;;;;2.10;0.93;;;;;;;;;;5047024;28;20171;-76
2023/03/18 10:57:23;;;;;;;2.28;1.60;;;;;;;;;;5030567;28;20025;-76
2023/03/18 10:59:50;;;;;;;2.08;1.30;;;;;;;;;;5030272;28;20033;-75
2023/03/18 11:02:19;;;;;;;3.53;2.55;;;;;;;;;;5029893;28;20017;-78
2023/03/18 11:04:51;;;;;;;3.08;1.50;;;;;;;;;;5031246;28;20028;-78
2023/03/18 11:07:26;;;;;;;1.40;1.13;;;;;;;;;;5031618;28;20032;-75
2023/03/18 11:09:52;;;;;;;1.63;1.17;;;;;;;;;;5031172;28;20025;-75
2023/03/18 11:12:23;;;;;;;1.13;1.02;;;;;;;;;;5032264;28;20061;-78
2023/03/18 11:14:50;;;;;;;1.60;1.20;;;;;;;;;;5031251;28;20637;-75
2023/03/18 11:17:19;;;;;;;3.70;1.00;;;;;;;;;;5030925;28;20036;-76
2023/03/18 11:19:47;;;;;;;3.20;1.30;;;;;;;;;;5045428;28;20033;-76
2023/03/18 11:22:19;;;;;;;4.57;0.90;;;;;;;;;;5050890;28;20017;-76
2023/03/18 11:24:47;;;;;;;2.25;1.20;;;;;;;;;;5051154;28;20208;-76
2023/03/18 11:27:14;;;;;;;4.22;1.00;;;;;;;;;;5050627;28;20277;-76
2023/03/18 11:29:42;;;;;;;2.65;0.88;;;;;;;;;;5051048;28;20041;-75
2023/03/18 11:32:22;;;;;;;1.23;0.82;;;;;;;;;;5052066;28;20433;-77
2023/03/18 11:34:54;;;;;;;1.80;1.13;;;;;;;;;;5051911;28;20044;-76
2023/03/18 11:37:20;;;;;;;2.33;1.05;;;;;;;;;;5050608;28;20298;-76
2023/03/18 11:39:47;;;;;;;2.28;0.90;;;;;;;;;;5051722;28;20291;-76
2023/03/18 11:42:17;;;;;;;6.82;1.38;;;;;;;;;;5050245;28;20059;-77
2023/03/18 11:44:43;;;;;;;1.38;0.90;;;;;;;;;;5051895;28;20032;-76
2023/03/18 11:47:12;;;;;;;1.20;1.08;;;;;;;;;;5051704;28;20084;-77
2023/03/18 11:49:38;;;;;;;1.80;1.13;;;;;;;;;;5051754;28;20384;-76
2023/03/18 11:52:09;;;;;;;1.98;1.02;;;;;;;;;;5050286;28;20044;-77
2023/03/18 11:54:35;;;;;;;3.17;0.63;;;;;;;;;;5051506;28;20485;-76
2023/03/18 11:57:19;;;;;;;1.58;0.80;;;;;;;;;;5051456;28;20029;-77
2023/03/18 11:59:59;;;;;;;2.42;0.95;;;;;;;;;;5051410;28;20052;-76
2023/03/18 12:02:25;;;;;;;;;;;;;;;;;;5050537;28;20021;-76
2023/03/18 12:04:57;;;;;;;1.20;0.95;;;;;;;;;;5050126;28;19915;-78
2023/03/18 12:07:23;;;;;;;1.48;1.17;;;;;;;;;;5051269;28;20497;-76
2023/03/18 12:10:11;;;;;;;2.50;0.80;;;;;;;;;;5051488;28;20021;-77
2023/03/18 12:12:58;;;;;;;1.20;0.80;;;;;;;;;;5050760;28;20107;-78
2023/03/18 12:15:37;;;;;;;3.53;1.15;;;;;;;;;;5049352;28;20184;-78
2023/03/18 12:18:03;;;;;;;1.33;0.50;;;;;;;;;;5050955;28;20049;-77
2023/03/18 12:20:35;;;;;;;1.05;0.50;;;;;;;;;;5049130;28;20114;-76
2023/03/18 12:23:08;;;;;;;0.93;0.55;;;;;;;;;;5049313;28;20438;-76
2023/03/18 12:25:41;;;;;;;2.13;0.60;;;;;;;;;;5049294;28;20017;-77
2023/03/18 12:28:25;;;;;;;0.70;0.70;;;;;;;;;;5048794;28;20028;-76
2023/03/18 12:31:10;;;;;;;2.20;0.80;;;;;;;;;;5049148;28;20045;-76
2023/03/18 12:33:49;;;;;;;3.42;0.57;;;;;;;;;;5050648;28;20033;-76
2023/03/18 12:36:43;;;;;;;2.08;0.60;;;;;;;;;;5050781;28;20032;-76
2023/03/18 12:39:15;;;;;;;1.30;0.63;;;;;;;;;;5027158;28;20132;-77
2023/03/18 12:41:41;;;;;;;7.28;0.60;;;;;;;;;;5050204;28;20055;-76
2023/03/18 12:44:14;;;;;;;1.60;1.05;;;;;;;;;;5048809;28;20461;-77
2023/03/18 12:46:43;;;;;;;1.02;0.50;;;;;;;;;;5050078;28;20021;-77
2023/03/18 12:49:18;;;;;;;2.25;0.70;;;;;;;;;;5048990;28;20116;-76
2023/03/18 12:51:55;;;;;;;4.20;0.80;;;;;;;;;;5050488;28;20032;-77
2023/03/18 12:54:25;;;;;;;1.20;0.80;;;;;;;;;;5050352;28;20063;-77
2023/03/18 12:56:54;;;;;;;1.23;0.85;;;;;;;;;;5050390;28;20028;-77
2023/03/18 12:59:20;;;;;;;;;;;;;;;;;;5049139;28;20032;-76
2023/03/18 13:01:48;;;;;;;1.30;1.20;;;;;;;;;;5049045;28;19905;-78
2023/03/18 13:04:21;;;;;;;4.03;0.90;;;;;;;;;;5048927;28;20025;-77
2023/03/18 13:07:02;;;;;;;1.52;0.98;;;;;;;;;;5050205;28;20036;-76
2023/03/18 13:09:40;;;;;;;2.75;0.70;;;;;;;;;;5050489;28;20155;-77
2023/03/18 13:12:15;;;;;;;1.65;1.27;;;;;;;;;;5050193;28;20029;-75
2023/03/18 13:14:50;;;;;;;3.05;1.55;;;;;;;;;;5050038;28;20503;-76
2023/03/18 13:17:22;;;;;;;1.15;0.85;;;;;;;;;;5050098;28;20028;-76
2023/03/18 13:19:48;;;;;;;2.47;1.00;;;;;;;;;;5049914;28;20117;-77
2023/03/18 13:22:23;;;;;;;2.70;1.20;;;;;;;;;;5049928;28;20031;-77
2023/03/18 13:24:58;;;;;;;1.63;0.82;;;;;;;;;;5049633;28;20058;-77
2023/03/18 13:27:41;;;;;;;1.48;0.95;;;;;;;;;;5049037;28;20061;-76
2023/03/18 13:30:16;;;;;;;2.53;1.05;;;;;;;;;;5049465;28;20056;-77
2023/03/18 13:32:53;;;;;;;2.65;1.05;;;;;;;;;;5049156;28;20021;-79
2023/03/18 13:35:29;;;;;;;0.90;0.90;;;;;;;;;;5049617;28;20142;-77
2023/03/18 13:37:56;;;;;;;1.13;0.63;;;;;;;;;;5049562;28;20021;-76
2023/03/18 13:40:30;;;;;;;1.73;0.88;;;;;;;;;;5049064;28;20028;-77
2023/03/18 13:42:58;;;;;;;4.43;1.80;;;;;;;;;;5048901;28;20123;-76
2023/03/18 13:45:30;;;;;;;1.35;0.60;;;;;;;;;;5049250;28;20114;-76
2023/03/18 13:47:58;;;;;;;1.30;0.90;;;;;;;;;;5048205;28;20449;-76
2023/03/18 13:50:24;;;;;;;0.93;0.60;;;;;;;;;;5049321;28;20353;-78
2023/03/18 13:52:53;;;;;;;4.03;0.90;;;;;;;;;;5048859;28;20021;-77
2023/03/18 13:55:22;;;;;;;1.40;0.82;;;;;;;;;;5049429;28;20527;-78
2023/03/18 13:57:55;;;;;;;1.98;0.82;;;;;;;;;;5048868;28;20025;-78
2023/03/18 14:00:22;;;;;;;1.92;1.10;;;;;;;;;;5049369;28;20177;-76
2023/03/18 14:03:00;;;;;;;1.77;1.08;;;;;;;;;;5049360;28;20090;-77
2023/03/18 14:05:32;;;;;;;3.80;0.77;;;;;;;;;;5048786;28;20033;-76
2023/03/18 14:07:59;;;;;;;0.75;0.75;;;;;;;;;;5048844;28;20070;-76
2023/03/18 14:10:25;;;;;;;2.47;0.70;;;;;;;;;;5048971;28;20024;-75
2023/03/18 14:12:51;;;;;;;1.52;0.65;;;;;;;;;;5047020;28;20432;-76
2023/03/18 14:15:37;;;;;;;1.40;0.90;;;;;;;;;;5049006;28;20017;-76
2023/03/18 14:18:03;;;;;;;1.95;0.95;;;;;;;;;;5048666;28;20497;-76
2023/03/18 14:20:38;;;;;;;1.08;0.60;;;;;;;;;;5048611;28;20064;-76
2023/03/18 14:23:19;;;;;;;0.93;0.40;;;;;;;;;;5048455;28;20068;-77
2023/03/18 14:25:53;;;;;;;3.13;1.33;;;;;;;;;;5048834;28;20393;-78
2023/03/18 14:28:21;;;;;;;1.75;1.20;;;;;;;;;;5048648;28;20039;-79
2023/03/18 14:31:06;;;;;;;3.93;0.60;;;;;;;;;;5009334;28;20042;-77
2023/03/18 14:33:33;;;;;;;1.02;0.68;;;;;;;;;;5009195;28;20037;-77
2023/03/18 14:36:01;;;;;;;1.38;1.02;;;;;;;;;;5007762;28;20021;-76
2023/03/18 14:38:31;;;;;;;0.45;0.45;;;;;;;;;;5008903;28;20669;-78
2023/03/18 14:40:58;;;;;;;1.95;1.35;;;;;;;;;;5008989;28;20034;-76
2023/03/18 14:43:29;;;;;;;1.00;0.90;;;;;;;;;;5008650;28;20026;-78
2023/03/18 14:45:56;;;;;;;3.78;0.60;;;;;;;;;;5008894;28;20471;-77
2023/03/18 14:48:30;;;;;;;2.15;1.27;;;;;;;;;;5007739;28;20025;-77
2023/03/18 14:50:58;;;;;;;1.10;0.80;;;;;;;;;;5007516;28;20486;-76
2023/03/18 14:53:32;;;;;;;1.90;0.63;;;;;;;;;;5008866;28;20022;-76